Lumberton Municipal Airport Lumberton US
ICAO: KLBT
IATA: LBT
Category: Medium
Scheduled Services: No

Elevation: 126 ft
TransAlt. 18000 ft.

Airport Communications:
FAYETTEVILLE APP/DEP:133
ASOS:134.775
CTAF/UNICOM:122.8

KLBT Zoom In..

Runways:

(A) RW 05 length 5502 ft width 150 ft
ILS 108.95 / hdg 53

(B) RW 13 length 5003 ft width 150 ft
---- / hdg 133

(C) RW 23 length 5502 ft width 150 ft
---- / hdg 233

(D) RW 31 length 5003 ft width 150 ft
---- / hdg 313

Location; KLBT
Day. 22 / Time. 00.54 Zulu
* Altimeter: 30.33
* Temperature: 14° c. 57.2°f.
* Wind from: 160° Speed 04 kn.
Dewpoint: 06° c.
Visibility: 10 Statute Miles.
Clouds: Clear (automated report).

KLBT 220054Z AUTO 16004KT 10SM CLR 14/06 A3033 RMK AO2 SLP270 T01440056 $


Wind From 160°
Speed 04 kn.

  YouTube Music Video
 
jpsmedia.com for Web Design  worldairports.se 2018   terms of use